createdAt,value
2018-10-19T00:00:58.226Z,10.67
2018-10-19T00:03:25.778Z,10.47
2018-10-19T00:05:53.321Z,10.32
2018-10-19T00:08:20.866Z,10.33
2018-10-19T00:10:48.472Z,10.36
2018-10-19T00:13:16.031Z,10.30
2018-10-19T00:15:43.818Z,10.39
2018-10-19T00:18:11.351Z,10.37
2018-10-19T00:20:38.940Z,10.37
2018-10-19T00:23:06.539Z,10.36
2018-10-19T00:25:34.046Z,10.24
2018-10-19T00:28:01.596Z,10.11
2018-10-19T00:30:29.118Z,10.09
2018-10-19T00:32:56.658Z,9.96
2018-10-19T00:35:25.314Z,9.87
2018-10-19T00:37:52.945Z,9.86
2018-10-19T00:40:20.526Z,9.89
2018-10-19T00:42:48.310Z,9.89
2018-10-19T00:45:15.932Z,9.80
2018-10-19T00:47:43.510Z,9.76
2018-10-19T00:50:11.290Z,9.75
2018-10-19T00:52:38.819Z,9.81
2018-10-19T00:55:06.463Z,9.76
2018-10-19T00:57:34.028Z,9.82
2018-10-19T01:00:01.627Z,9.67
2018-10-19T01:02:29.207Z,9.60
2018-10-19T01:04:56.807Z,9.63
2018-10-19T01:07:24.336Z,9.68
2018-10-19T01:09:51.867Z,9.64
2018-10-19T01:12:19.396Z,9.71
2018-10-19T01:14:47.033Z,9.50
2018-10-19T01:17:14.782Z,9.51
2018-10-19T01:19:42.232Z,9.60
2018-10-19T01:22:09.790Z,9.58
2018-10-19T01:24:37.318Z,9.46
2018-10-19T01:27:05.553Z,9.30
2018-10-19T01:29:33.102Z,9.34
2018-10-19T01:32:00.625Z,9.28
2018-10-19T01:34:28.183Z,9.46
2018-10-19T01:36:55.813Z,9.48
2018-10-19T01:39:23.371Z,9.56
2018-10-19T01:41:51.163Z,9.54
2018-10-19T01:44:18.820Z,9.59
2018-10-19T01:46:49.435Z,9.35
2018-10-19T01:49:18.208Z,9.08
2018-10-19T01:51:45.723Z,9.01
2018-10-19T01:54:13.274Z,8.96
2018-10-19T01:56:41.523Z,8.88
2018-10-19T01:59:09.119Z,8.87
2018-10-19T02:01:36.867Z,8.84
2018-10-19T02:04:04.500Z,8.83
2018-10-19T02:06:32.071Z,8.88
2018-10-19T02:08:59.832Z,8.86
2018-10-19T02:11:27.455Z,8.84
2018-10-19T02:13:54.979Z,8.79
2018-10-19T02:16:22.518Z,8.71
2018-10-19T02:18:50.219Z,8.67
2018-10-19T02:21:17.755Z,8.69
2018-10-19T02:23:45.294Z,8.72
2018-10-19T02:26:12.845Z,8.71
2018-10-19T02:28:40.430Z,8.61
2018-10-19T02:31:07.983Z,8.58
2018-10-19T02:33:35.539Z,8.53
2018-10-19T02:36:03.121Z,8.49
2018-10-19T02:38:30.660Z,8.53
2018-10-19T02:40:58.263Z,8.49
2018-10-19T02:43:25.763Z,8.50
2018-10-19T02:45:53.300Z,8.49
2018-10-19T02:48:20.872Z,8.46
2018-10-19T02:50:48.440Z,8.40
2018-10-19T02:53:16.377Z,8.39
2018-10-19T02:55:43.832Z,8.33
2018-10-19T02:58:11.334Z,8.36
2018-10-19T03:00:38.871Z,8.33
2018-10-19T03:03:06.445Z,8.24
2018-10-19T03:05:33.964Z,8.24
2018-10-19T03:08:01.575Z,8.27
2018-10-19T03:10:29.115Z,8.23
2018-10-19T03:12:56.641Z,8.39
2018-10-19T03:15:24.189Z,8.31
2018-10-19T03:17:51.795Z,8.29
2018-10-19T03:20:19.350Z,8.32
2018-10-19T03:22:46.878Z,8.39
2018-10-19T03:25:14.410Z,8.32
2018-10-19T03:27:41.958Z,8.37
2018-10-19T03:30:09.526Z,8.37
2018-10-19T03:32:37.087Z,8.38
2018-10-19T03:35:05.110Z,8.40
2018-10-19T03:37:32.976Z,8.52
2018-10-19T03:40:00.520Z,8.57
2018-10-19T03:42:28.057Z,8.56
2018-10-19T03:44:55.641Z,8.56
2018-10-19T03:47:23.124Z,8.57
2018-10-19T03:49:50.659Z,8.68
2018-10-19T03:52:18.211Z,8.74
2018-10-19T03:54:45.998Z,8.74
2018-10-19T03:57:13.583Z,8.79
2018-10-19T03:59:41.158Z,8.80
2018-10-19T04:02:08.717Z,8.81
2018-10-19T04:04:36.246Z,8.78
2018-10-19T04:07:04.102Z,9.03
2018-10-19T04:09:31.656Z,9.02
2018-10-19T04:11:59.201Z,9.20
2018-10-19T04:14:26.752Z,9.29
2018-10-19T04:16:54.367Z,9.10
2018-10-19T04:19:21.898Z,9.18
2018-10-19T04:21:49.432Z,9.14
2018-10-19T04:24:16.994Z,9.07
2018-10-19T04:26:44.558Z,8.95
2018-10-19T04:29:12.199Z,8.90
2018-10-19T04:31:39.831Z,8.90
2018-10-19T04:34:07.362Z,8.87
2018-10-19T04:36:34.930Z,8.99
2018-10-19T04:39:02.651Z,8.94
2018-10-19T04:41:30.265Z,9.06
2018-10-19T04:43:57.745Z,8.91
2018-10-19T04:46:25.303Z,8.98
2018-10-19T04:48:52.839Z,8.84
2018-10-19T04:51:20.698Z,8.88
2018-10-19T04:53:48.271Z,8.89
2018-10-19T04:56:15.795Z,8.91
2018-10-19T04:58:43.354Z,8.83
2018-10-19T05:01:10.874Z,8.82
2018-10-19T05:03:38.447Z,8.86
2018-10-19T05:06:06.024Z,8.79
2018-10-19T05:08:33.790Z,8.79
2018-10-19T05:11:01.729Z,8.74
2018-10-19T05:13:29.203Z,8.80
2018-10-19T05:15:56.754Z,8.87
2018-10-19T05:18:24.577Z,8.78
2018-10-19T05:20:52.103Z,8.72
2018-10-19T05:23:19.633Z,8.72
2018-10-19T05:25:47.418Z,8.69
2018-10-19T05:28:14.938Z,8.65
2018-10-19T05:30:42.498Z,8.65
2018-10-19T05:33:10.294Z,8.74
2018-10-19T05:35:37.815Z,8.73
2018-10-19T05:38:05.407Z,8.71
2018-10-19T05:40:32.971Z,8.81
2018-10-19T05:43:00.525Z,8.73
2018-10-19T05:45:28.030Z,8.74
2018-10-19T05:47:55.578Z,8.64
2018-10-19T05:50:23.119Z,8.83
2018-10-19T05:52:50.975Z,8.79
2018-10-19T05:55:18.494Z,8.79
2018-10-19T05:57:46.004Z,8.74
2018-10-19T06:00:13.576Z,8.74
2018-10-19T06:02:41.243Z,8.71
2018-10-19T06:05:09.218Z,8.60
2018-10-19T06:07:36.719Z,8.58
2018-10-19T06:10:04.922Z,8.52
2018-10-19T06:12:32.479Z,8.58
2018-10-19T06:15:00.008Z,8.54
2018-10-19T06:17:27.555Z,8.58
2018-10-19T06:19:55.133Z,8.48
2018-10-19T06:22:22.696Z,8.63
2018-10-19T06:24:50.311Z,8.55
2018-10-19T06:27:17.858Z,8.55
2018-10-19T06:29:45.378Z,8.61
2018-10-19T06:32:13.018Z,8.63
2018-10-19T06:34:40.518Z,8.61
2018-10-19T06:37:08.067Z,8.67
2018-10-19T06:39:35.591Z,8.77
2018-10-19T06:42:03.167Z,8.82
2018-10-19T06:44:30.862Z,8.85
2018-10-19T06:46:58.610Z,8.90
2018-10-19T06:49:26.141Z,8.81
2018-10-19T06:51:53.658Z,8.75
2018-10-19T06:54:21.210Z,8.83
2018-10-19T06:56:48.773Z,8.84
2018-10-19T06:59:16.450Z,8.87
2018-10-19T07:01:43.994Z,8.83
2018-10-19T07:04:11.823Z,8.78
2018-10-19T07:06:39.369Z,8.92
2018-10-19T07:09:07.441Z,8.93
2018-10-19T07:11:35.006Z,8.93
2018-10-19T07:14:02.676Z,8.97
2018-10-19T07:16:30.207Z,8.97
2018-10-19T07:18:57.791Z,8.99
2018-10-19T07:21:25.659Z,9.04
2018-10-19T07:23:53.211Z,9.19
2018-10-19T07:26:20.801Z,9.17
2018-10-19T07:28:48.375Z,9.25
2018-10-19T07:31:16.010Z,9.32
2018-10-19T07:33:43.567Z,9.32
2018-10-19T07:36:11.118Z,9.39
2018-10-19T07:38:38.654Z,9.47
2018-10-19T07:41:06.245Z,9.59
2018-10-19T07:43:33.842Z,9.71
2018-10-19T07:46:01.441Z,9.93
2018-10-19T07:48:29.040Z,9.98
2018-10-19T07:50:56.601Z,9.86
2018-10-19T07:53:24.527Z,9.80
2018-10-19T07:55:52.277Z,10.01
2018-10-19T07:58:19.837Z,9.87
2018-10-19T08:00:47.766Z,9.84
2018-10-19T08:03:15.290Z,9.87
2018-10-19T08:05:42.859Z,9.99
2018-10-19T08:08:10.485Z,10.01
2018-10-19T08:10:37.963Z,10.14
2018-10-19T08:13:05.613Z,10.27
2018-10-19T08:15:33.243Z,10.48
2018-10-19T08:18:00.770Z,10.33
2018-10-19T08:20:28.326Z,10.38
2018-10-19T08:22:55.867Z,10.38
2018-10-19T08:25:23.436Z,10.42
2018-10-19T08:27:51.987Z,10.59
2018-10-19T08:30:20.381Z,10.73
2018-10-19T08:32:47.925Z,10.68
2018-10-19T08:35:15.500Z,10.78
2018-10-19T08:37:44.094Z,10.72
2018-10-19T08:40:11.620Z,10.63
2018-10-19T08:42:39.202Z,10.84
2018-10-19T08:45:07.001Z,10.92
2018-10-19T08:47:34.511Z,10.94
2018-10-19T08:50:02.076Z,11.03
2018-10-19T08:52:29.659Z,11.17
2018-10-19T08:54:57.183Z,11.11
2018-10-19T08:57:24.718Z,11.26
2018-10-19T08:59:52.319Z,11.28
2018-10-19T09:02:19.895Z,11.24
2018-10-19T09:04:47.438Z,11.14
2018-10-19T09:07:15.234Z,11.13
2018-10-19T09:09:42.768Z,11.27
2018-10-19T09:12:10.307Z,11.36
2018-10-19T09:14:49.875Z,11.37
2018-10-19T09:17:17.619Z,11.41
2018-10-19T09:19:45.380Z,11.28
2018-10-19T09:22:12.979Z,11.47
2018-10-19T09:24:40.592Z,11.58
2018-10-19T09:27:08.233Z,11.63
2018-10-19T09:29:36.034Z,11.72
2018-10-19T09:32:03.534Z,11.93
2018-10-19T09:34:31.066Z,12.02
2018-10-19T09:36:58.684Z,12.16
2018-10-19T09:39:26.215Z,12.28
2018-10-19T09:41:53.804Z,12.43
2018-10-19T09:44:21.379Z,12.49
2018-10-19T09:46:48.925Z,12.58
2018-10-19T09:49:16.496Z,12.27
2018-10-19T09:51:44.023Z,12.33
2018-10-19T09:54:12.071Z,12.32
2018-10-19T09:56:39.702Z,12.49
2018-10-19T09:59:07.283Z,12.64
2018-10-19T10:01:35.439Z,12.85
2018-10-19T10:04:03.023Z,12.80
2018-10-19T10:06:30.539Z,12.79
2018-10-19T10:08:58.257Z,12.85
2018-10-19T10:11:25.815Z,12.82
2018-10-19T10:13:53.375Z,12.79
2018-10-19T10:16:21.102Z,12.83
2018-10-19T10:18:48.738Z,12.88
2018-10-19T10:21:16.366Z,12.72
2018-10-19T10:23:44.185Z,12.85
2018-10-19T10:26:12.480Z,12.91
2018-10-19T10:28:40.040Z,12.91
2018-10-19T10:31:07.665Z,12.92
2018-10-19T10:33:35.214Z,13.04
2018-10-19T10:36:03.206Z,13.10
2018-10-19T10:38:30.964Z,13.06
2018-10-19T10:40:58.574Z,13.05
2018-10-19T10:43:26.121Z,12.98
2018-10-19T10:45:53.698Z,13.21
2018-10-19T10:48:21.257Z,13.25
2018-10-19T10:50:48.834Z,13.45
2018-10-19T10:53:16.622Z,13.36
2018-10-19T10:55:44.238Z,13.51
2018-10-19T10:58:11.899Z,13.74
2018-10-19T11:00:39.478Z,13.67
2018-10-19T11:03:07.400Z,13.76
2018-10-19T11:05:34.951Z,13.85
2018-10-19T11:08:02.510Z,14.15
2018-10-19T11:10:30.169Z,14.10
2018-10-19T11:12:57.758Z,14.28
2018-10-19T11:15:25.589Z,14.37
2018-10-19T11:17:53.140Z,14.44
2018-10-19T11:20:20.688Z,14.39
2018-10-19T11:22:48.267Z,14.42
2018-10-19T11:25:15.912Z,14.69
2018-10-19T11:27:43.427Z,14.66
2018-10-19T11:30:10.974Z,14.75
2018-10-19T11:32:38.553Z,14.76
2018-10-19T11:35:06.331Z,14.82
2018-10-19T11:37:33.928Z,14.64
2018-10-19T11:40:07.056Z,14.65
2018-10-19T11:42:34.638Z,14.54
2018-10-19T11:45:02.226Z,14.58
2018-10-19T11:47:29.783Z,14.35
2018-10-19T11:49:57.299Z,14.67
2018-10-19T11:52:25.853Z,14.84
2018-10-19T11:54:53.457Z,14.99
2018-10-19T11:57:20.966Z,14.73
2018-10-19T11:59:48.532Z,14.64
2018-10-19T12:02:16.091Z,14.78
2018-10-19T12:04:43.644Z,15.02
2018-10-19T12:07:11.232Z,15.19
2018-10-19T12:09:38.739Z,15.24
2018-10-19T12:12:06.358Z,15.29
2018-10-19T12:14:33.926Z,15.30
2018-10-19T12:17:01.686Z,15.45
2018-10-19T12:19:29.099Z,15.07
2018-10-19T12:21:56.678Z,15.03
2018-10-19T12:24:24.281Z,15.17
2018-10-19T12:26:51.836Z,15.15
2018-10-19T12:29:19.397Z,15.06
2018-10-19T12:31:46.957Z,15.07
2018-10-19T12:34:14.508Z,14.78
2018-10-19T12:36:42.309Z,14.74
2018-10-19T12:39:10.531Z,14.78
2018-10-19T12:41:38.040Z,14.79
2018-10-19T12:44:05.663Z,14.72
2018-10-19T12:46:42.887Z,14.82
2018-10-19T12:49:11.848Z,14.68
2018-10-19T12:51:39.453Z,14.72
2018-10-19T12:54:07.387Z,14.66
2018-10-19T12:56:35.180Z,14.86
2018-10-19T12:59:02.822Z,14.88
2018-10-19T13:01:30.975Z,14.82
2018-10-19T13:03:59.186Z,14.75
2018-10-19T13:06:26.776Z,14.98
2018-10-19T13:08:54.378Z,14.92
2018-10-19T13:11:23.369Z,14.94
2018-10-19T13:13:51.018Z,14.94
2018-10-19T13:16:18.580Z,14.93
2018-10-19T13:18:46.130Z,14.99
2018-10-19T13:21:13.813Z,14.89
2018-10-19T13:23:41.328Z,14.99
2018-10-19T13:26:09.014Z,15.07
2018-10-19T13:28:36.555Z,15.00
2018-10-19T13:31:04.260Z,14.91
2018-10-19T13:33:32.143Z,15.06
2018-10-19T13:35:59.708Z,15.20
2018-10-19T13:38:27.247Z,15.04
2018-10-19T13:40:55.106Z,14.84
2018-10-19T13:43:23.066Z,14.99
2018-10-19T13:45:52.073Z,14.97
2018-10-19T13:48:20.275Z,14.73
2018-10-19T13:50:47.843Z,14.87
2018-10-19T13:53:15.642Z,14.71
2018-10-19T13:55:43.315Z,14.77
2018-10-19T13:58:10.898Z,14.66
2018-10-19T14:00:38.528Z,14.67
2018-10-19T14:03:06.792Z,14.65
2018-10-19T14:05:34.527Z,14.68
2018-10-19T14:08:02.265Z,14.69
2018-10-19T14:10:29.774Z,14.70
2018-10-19T14:12:57.343Z,14.82
2018-10-19T14:15:24.943Z,14.72
2018-10-19T14:17:52.515Z,14.74
2018-10-19T14:20:20.099Z,14.73
2018-10-19T14:22:47.682Z,14.67
2018-10-19T14:25:15.278Z,14.71
2018-10-19T14:27:43.753Z,14.68
2018-10-19T14:30:13.479Z,14.72
2018-10-19T14:32:41.619Z,14.68
2018-10-19T14:35:09.885Z,14.60
2018-10-19T14:37:38.618Z,14.58
2018-10-19T14:40:07.467Z,14.64
2018-10-19T14:42:35.160Z,14.56
2018-10-19T14:45:03.996Z,14.70
2018-10-19T14:47:31.518Z,14.68
2018-10-19T14:49:59.241Z,14.63
2018-10-19T14:52:26.829Z,14.67
2018-10-19T14:54:54.366Z,14.51
2018-10-19T14:57:21.961Z,14.53
2018-10-19T14:59:49.555Z,14.60
2018-10-19T15:02:17.087Z,14.49
2018-10-19T15:04:44.674Z,14.44
2018-10-19T15:07:12.267Z,14.43
2018-10-19T15:09:40.041Z,14.42
2018-10-19T15:12:07.885Z,14.35
2018-10-19T15:14:35.682Z,14.41
2018-10-19T15:17:03.350Z,14.39
2018-10-19T15:19:30.888Z,14.37
2018-10-19T15:21:58.766Z,14.27
2018-10-19T15:24:26.315Z,14.25
2018-10-19T15:26:53.895Z,14.22
2018-10-19T15:29:21.516Z,14.28
2018-10-19T15:31:49.038Z,14.27
2018-10-19T15:34:16.610Z,14.22
2018-10-19T15:36:44.590Z,14.24
2018-10-19T15:39:12.301Z,14.23
2018-10-19T15:41:40.350Z,14.16
2018-10-19T15:44:07.927Z,14.24
2018-10-19T15:46:35.555Z,14.27
2018-10-19T15:49:03.222Z,14.27
2018-10-19T15:51:30.880Z,14.37
2018-10-19T15:53:58.555Z,14.23
2018-10-19T15:56:26.123Z,14.20
2018-10-19T15:58:53.665Z,14.18
2018-10-19T16:01:21.222Z,14.09
2018-10-19T16:03:49.102Z,14.17
2018-10-19T16:06:16.738Z,14.11
2018-10-19T16:08:44.297Z,14.12
2018-10-19T16:11:11.868Z,14.11
2018-10-19T16:13:39.449Z,13.96
2018-10-19T16:16:07.486Z,14.14
2018-10-19T16:18:35.039Z,14.05
2018-10-19T16:21:02.863Z,14.21
2018-10-19T16:23:30.562Z,14.26
2018-10-19T16:25:58.142Z,14.34
2018-10-19T16:28:25.690Z,14.16
2018-10-19T16:30:53.499Z,14.15
2018-10-19T16:33:21.083Z,13.99
2018-10-19T16:35:48.612Z,13.88
2018-10-19T16:38:16.158Z,13.79
2018-10-19T16:40:43.780Z,13.87
2018-10-19T16:43:11.339Z,14.01
2018-10-19T16:45:38.917Z,14.07
2018-10-19T16:48:06.658Z,13.85
2018-10-19T16:50:34.225Z,13.82
2018-10-19T16:53:01.970Z,13.96
2018-10-19T16:55:29.646Z,13.76
2018-10-19T16:57:57.234Z,13.69
2018-10-19T17:00:24.862Z,13.63
2018-10-19T17:02:53.595Z,13.39
2018-10-19T17:05:21.179Z,13.31
2018-10-19T17:07:49.682Z,13.44
2018-10-19T17:10:17.323Z,13.25
2018-10-19T17:12:44.915Z,13.15
2018-10-19T17:15:12.621Z,13.15
2018-10-19T17:17:40.125Z,13.06
2018-10-19T17:20:07.740Z,12.96
2018-10-19T17:22:35.614Z,12.95
2018-10-19T17:25:03.501Z,12.78
2018-10-19T17:27:31.027Z,12.56
2018-10-19T17:29:58.720Z,12.51
2018-10-19T17:32:26.321Z,12.41
2018-10-19T17:34:53.932Z,12.34
2018-10-19T17:37:21.743Z,12.28
2018-10-19T17:39:49.520Z,12.28
2018-10-19T17:42:17.089Z,12.34
2018-10-19T17:44:44.685Z,12.36
2018-10-19T17:47:12.328Z,12.31
2018-10-19T17:49:39.815Z,12.28
2018-10-19T17:52:07.642Z,12.16
2018-10-19T17:54:35.255Z,12.12
2018-10-19T17:57:02.906Z,12.05
2018-10-19T17:59:30.461Z,12.03
2018-10-19T18:01:58.017Z,11.92
2018-10-19T18:04:25.645Z,11.90
2018-10-19T18:06:53.454Z,11.80
2018-10-19T18:09:21.078Z,11.83
2018-10-19T18:11:48.616Z,11.79
2018-10-19T18:14:16.273Z,11.85
2018-10-19T18:16:43.852Z,11.82
2018-10-19T18:19:11.481Z,11.73
2018-10-19T18:21:39.183Z,11.73
2018-10-19T18:24:06.711Z,11.67
2018-10-19T18:26:34.316Z,11.61
2018-10-19T18:29:01.941Z,11.54
2018-10-19T18:31:30.119Z,11.41
2018-10-19T18:33:57.689Z,11.43
2018-10-19T18:36:25.279Z,11.36
2018-10-19T18:38:52.849Z,11.20
2018-10-19T18:41:20.462Z,11.24
2018-10-19T18:43:48.105Z,11.25
2018-10-19T18:46:15.695Z,11.20
2018-10-19T18:48:43.426Z,11.00
2018-10-19T18:51:11.069Z,10.94
2018-10-19T18:53:38.726Z,10.91
2018-10-19T18:56:06.319Z,10.90
2018-10-19T18:58:33.903Z,10.76
2018-10-19T19:01:01.438Z,10.56
2018-10-19T19:03:29.035Z,10.47
2018-10-19T19:05:56.670Z,10.48
2018-10-19T19:08:24.231Z,10.62
2018-10-19T19:10:51.815Z,10.83
2018-10-19T19:13:25.073Z,10.70
2018-10-19T19:15:52.614Z,10.70
2018-10-19T19:18:20.186Z,10.65
2018-10-19T19:20:47.839Z,10.66
2018-10-19T19:23:15.526Z,10.62
2018-10-19T19:25:48.666Z,10.50
2018-10-19T19:28:16.286Z,10.47
2018-10-19T19:30:43.873Z,10.32
2018-10-19T19:33:17.059Z,10.16
2018-10-19T19:35:44.635Z,10.36
2018-10-19T19:38:12.271Z,10.48
2018-10-19T19:40:45.400Z,10.41
2018-10-19T19:43:13.025Z,10.25
2018-10-19T19:45:40.620Z,10.17
2018-10-19T19:48:13.898Z,10.28
2018-10-19T19:50:41.503Z,10.20
2018-10-19T19:53:09.101Z,10.13
2018-10-19T19:55:36.640Z,9.93
2018-10-19T19:58:04.469Z,10.15
2018-10-19T20:00:31.982Z,10.02
2018-10-19T20:02:59.590Z,10.18
2018-10-19T20:05:27.165Z,10.04
2018-10-19T20:07:54.790Z,10.03
2018-10-19T20:10:22.370Z,10.05
2018-10-19T20:12:49.999Z,9.92
2018-10-19T20:15:17.575Z,9.80
2018-10-19T20:17:45.203Z,9.70
2018-10-19T20:20:13.058Z,9.70
2018-10-19T20:22:41.275Z,9.59
2018-10-19T20:25:10.097Z,9.62
2018-10-19T20:27:38.356Z,9.63
2018-10-19T20:30:07.259Z,9.62
2018-10-19T20:32:34.960Z,9.59
2018-10-19T20:35:02.634Z,9.59
2018-10-19T20:37:30.327Z,9.58
2018-10-19T20:39:57.964Z,9.50
2018-10-19T20:42:25.552Z,9.45
2018-10-19T20:44:53.107Z,9.42
2018-10-19T20:47:20.663Z,9.28
2018-10-19T20:49:48.226Z,9.24
2018-10-19T20:52:15.775Z,9.23
2018-10-19T20:54:43.344Z,9.24
2018-10-19T20:57:10.897Z,9.39
2018-10-19T20:59:38.553Z,9.44
2018-10-19T21:02:06.191Z,9.44
2018-10-19T21:04:33.666Z,9.43
2018-10-19T21:07:01.218Z,9.44
2018-10-19T21:09:28.784Z,9.31
2018-10-19T21:11:56.314Z,9.15
2018-10-19T21:14:23.911Z,9.44
2018-10-19T21:16:51.510Z,9.42
2018-10-19T21:19:19.102Z,9.40
2018-10-19T21:21:46.697Z,9.29
2018-10-19T21:24:14.223Z,9.35
2018-10-19T21:26:41.804Z,9.33
2018-10-19T21:29:09.659Z,9.23
2018-10-19T21:31:37.214Z,9.26
2018-10-19T21:34:04.822Z,9.27
2018-10-19T21:36:32.368Z,9.10
2018-10-19T21:38:59.920Z,9.18
2018-10-19T21:41:28.006Z,9.20
2018-10-19T21:43:55.578Z,9.14
2018-10-19T21:46:23.124Z,9.28
2018-10-19T21:48:50.654Z,9.26
2018-10-19T21:51:18.229Z,9.19
2018-10-19T21:53:45.907Z,8.95
2018-10-19T21:56:13.683Z,9.10
2018-10-19T21:58:41.075Z,8.93
2018-10-19T22:01:08.745Z,8.90
2018-10-19T22:03:36.301Z,8.89
2018-10-19T22:06:04.019Z,9.04
2018-10-19T22:08:31.678Z,8.96
2018-10-19T22:10:59.297Z,8.90
2018-10-19T22:13:26.795Z,8.90
2018-10-19T22:15:54.371Z,8.96
2018-10-19T22:18:21.944Z,9.00
2018-10-19T22:20:49.518Z,8.79
2018-10-19T22:23:17.183Z,8.64
2018-10-19T22:25:44.900Z,8.51
2018-10-19T22:28:12.479Z,8.50
2018-10-19T22:30:40.071Z,8.55
2018-10-19T22:33:07.887Z,8.45
2018-10-19T22:35:35.452Z,8.41
2018-10-19T22:38:02.979Z,8.44
2018-10-19T22:40:30.891Z,8.56
2018-10-19T22:42:58.609Z,8.44
2018-10-19T22:45:26.111Z,8.38
2018-10-19T22:47:53.687Z,8.36
2018-10-19T22:50:21.310Z,8.61
2018-10-19T22:52:48.913Z,8.45
2018-10-19T22:55:16.542Z,8.35
2018-10-19T22:57:44.041Z,8.48
2018-10-19T23:00:11.597Z,8.52
2018-10-19T23:02:39.131Z,8.65
2018-10-19T23:05:06.724Z,8.58
2018-10-19T23:07:34.264Z,8.64
2018-10-19T23:10:01.818Z,8.60
2018-10-19T23:12:29.390Z,8.52
2018-10-19T23:14:56.929Z,8.45
2018-10-19T23:17:24.467Z,8.42
2018-10-19T23:19:52.074Z,8.44
2018-10-19T23:22:19.647Z,8.34
2018-10-19T23:24:47.191Z,8.23
2018-10-19T23:27:14.723Z,8.21
2018-10-19T23:29:42.251Z,8.15
2018-10-19T23:32:09.793Z,8.14
2018-10-19T23:34:37.409Z,8.13
2018-10-19T23:37:05.014Z,8.07
2018-10-19T23:39:32.523Z,8.06
2018-10-19T23:42:00.034Z,8.02
2018-10-19T23:44:27.555Z,7.95
2018-10-19T23:46:55.164Z,7.98
2018-10-19T23:49:22.715Z,8.02
2018-10-19T23:51:50.283Z,7.99
2018-10-19T23:54:17.816Z,8.03
2018-10-19T23:56:45.601Z,7.90
2018-10-19T23:59:13.144Z,7.89
